Time;durP1;ratioP1;P1;durP2;ratioP2;P2;SDS_P1;SDS_P2;PMS_P1;PMS_P2;Temp;Humidity;BMP_temperature;BMP_pressure;BME280_temperature;BME280_humidity;BME280_pressure;Samples;Min_cycle;Max_cycle;Signal;HPM_P1;HPM_P2
2023/09/05 00:02:04;;;;;;;860.13;568.38;;;;;;;;;;5023314;28;20989;-69
2023/09/05 00:04:38;;;;;;;859.90;581.42;;;;;;;;;;5025115;28;20977;-69
2023/09/05 00:07:05;;;;;;;857.72;580.40;;;;;;;;;;5026391;28;20453;-69
2023/09/05 00:09:36;;;;;;;875.30;592.95;;;;;;;;;;5022630;28;21694;-69
2023/09/05 00:12:07;;;;;;;881.30;603.20;;;;;;;;;;5022196;28;20426;-69
2023/09/05 00:14:35;;;;;;;880.80;596.88;;;;;;;;;;5020583;28;20430;-69
2023/09/05 00:17:03;;;;;;;864.30;560.92;;;;;;;;;;5028390;28;20458;-69
2023/09/05 00:19:30;;;;;;;867.90;571.13;;;;;;;;;;5026512;28;20429;-69
2023/09/05 00:21:57;;;;;;;860.92;557.35;;;;;;;;;;5022937;28;20484;-69
2023/09/05 00:24:25;;;;;;;839.58;525.33;;;;;;;;;;5025252;28;20426;-69
2023/09/05 00:26:52;;;;;;;841.65;515.55;;;;;;;;;;5041069;28;20456;-69
2023/09/05 00:29:20;;;;;;;825.25;490.90;;;;;;;;;;5025075;28;20504;-69
2023/09/05 00:31:47;;;;;;;827.78;510.60;;;;;;;;;;5033854;28;20440;-70
2023/09/05 00:34:14;;;;;;;822.58;497.70;;;;;;;;;;5022427;28;20455;-69
2023/09/05 00:36:42;;;;;;;833.15;495.52;;;;;;;;;;5024079;28;20429;-69
2023/09/05 00:39:12;;;;;;;848.70;515.38;;;;;;;;;;5022943;28;20994;-70
2023/09/05 00:41:39;;;;;;;830.05;482.58;;;;;;;;;;5025309;28;20459;-70
2023/09/05 00:44:06;;;;;;;805.42;402.25;;;;;;;;;;5028138;28;20513;-70
2023/09/05 00:46:36;;;;;;;833.47;489.97;;;;;;;;;;5035365;28;20805;-70
2023/09/05 00:49:03;;;;;;;849.13;508.92;;;;;;;;;;5032821;28;20928;-70
2023/09/05 00:51:34;;;;;;;838.63;497.50;;;;;;;;;;5030948;28;20451;-69
2023/09/05 00:54:02;;;;;;;845.97;503.27;;;;;;;;;;5018664;28;20522;-70
2023/09/05 00:56:29;;;;;;;835.65;503.15;;;;;;;;;;5027430;28;20473;-69
2023/09/05 00:58:58;;;;;;;848.92;502.23;;;;;;;;;;5025880;28;20509;-69
2023/09/05 01:01:25;;;;;;;843.23;494.73;;;;;;;;;;5024846;28;20459;-69
2023/09/05 01:03:57;;;;;;;837.15;499.63;;;;;;;;;;5026658;28;20442;-69
2023/09/05 01:06:33;;;;;;;832.13;511.77;;;;;;;;;;5036211;28;20444;-69
2023/09/05 01:09:05;;;;;;;824.00;498.70;;;;;;;;;;5031604;28;20454;-69
2023/09/05 01:11:32;;;;;;;843.22;477.63;;;;;;;;;;5035509;28;20445;-69
2023/09/05 01:14:00;;;;;;;961.55;688.15;;;;;;;;;;5043195;28;20455;-69
2023/09/05 01:16:30;;;;;;;983.25;753.95;;;;;;;;;;5033516;28;20433;-69
2023/09/05 01:18:57;;;;;;;779.03;716.20;;;;;;;;;;5028310;28;20426;-69
2023/09/05 01:21:34;;;;;;;960.70;766.87;;;;;;;;;;5035318;28;20432;-69
2023/09/05 01:24:17;;;;;;;685.67;414.83;;;;;;;;;;5029643;28;21185;-69
2023/09/05 01:26:49;;;;;;;593.78;388.75;;;;;;;;;;5028124;28;20435;-69
2023/09/05 01:29:29;;;;;;;603.57;440.80;;;;;;;;;;5026081;28;20440;-69
2023/09/05 01:31:59;;;;;;;598.83;442.35;;;;;;;;;;5047533;28;20433;-69
2023/09/05 01:34:26;;;;;;;629.63;433.13;;;;;;;;;;5039198;28;20853;-69
2023/09/05 01:37:00;;;;;;;593.92;430.02;;;;;;;;;;5027394;28;20451;-69
2023/09/05 01:39:27;;;;;;;837.85;471.67;;;;;;;;;;5030491;28;21006;-69
2023/09/05 01:41:54;;;;;;;833.00;483.23;;;;;;;;;;5029102;28;20489;-69
2023/09/05 01:44:24;;;;;;;848.63;495.98;;;;;;;;;;5014718;28;20442;-69
2023/09/05 01:46:51;;;;;;;507.60;219.73;;;;;;;;;;5028505;28;21048;-69
2023/09/05 01:49:19;;;;;;;567.67;444.58;;;;;;;;;;5028001;28;20423;-69
2023/09/05 01:51:46;;;;;;;460.20;156.33;;;;;;;;;;5032048;28;20429;-69
2023/09/05 01:54:13;;;;;;;123.35;117.05;;;;;;;;;;5044042;28;20783;-69
2023/09/05 01:56:41;;;;;;;103.75;98.40;;;;;;;;;;5038539;28;20433;-69
2023/09/05 01:59:09;;;;;;;110.28;104.63;;;;;;;;;;5027320;28;20419;-69
2023/09/05 02:01:36;;;;;;;128.75;122.22;;;;;;;;;;5030915;28;20470;-69
2023/09/05 02:04:03;;;;;;;138.48;131.68;;;;;;;;;;5027618;28;20443;-70
2023/09/05 02:06:30;;;;;;;141.20;134.02;;;;;;;;;;5032831;28;20483;-70
2023/09/05 02:08:57;;;;;;;127.95;121.47;;;;;;;;;;5028130;28;20441;-69
2023/09/05 02:11:24;;;;;;;165.40;156.88;;;;;;;;;;5026392;28;20509;-70
2023/09/05 02:13:52;;;;;;;125.82;119.03;;;;;;;;;;5030439;28;20435;-69
2023/09/05 02:16:19;;;;;;;117.43;111.03;;;;;;;;;;5025515;28;20971;-69
2023/09/05 02:18:47;;;;;;;127.10;120.28;;;;;;;;;;5033065;28;20905;-69
2023/09/05 02:21:15;;;;;;;121.55;114.88;;;;;;;;;;5044382;28;20517;-70
2023/09/05 02:23:42;;;;;;;127.45;120.57;;;;;;;;;;5029153;28;20434;-69
2023/09/05 02:26:17;;;;;;;139.30;131.98;;;;;;;;;;5028714;28;20966;-69
2023/09/05 02:28:44;;;;;;;113.40;107.72;;;;;;;;;;5034767;28;20487;-69
2023/09/05 02:31:12;;;;;;;75.28;71.20;;;;;;;;;;5033420;28;20428;-69
2023/09/05 02:33:39;;;;;;;70.93;67.10;;;;;;;;;;5027497;28;20431;-69
2023/09/05 02:36:15;;;;;;;63.55;60.15;;;;;;;;;;5028320;28;20431;-69
2023/09/05 02:38:46;;;;;;;77.00;72.97;;;;;;;;;;5029848;28;20493;-70
2023/09/05 02:41:13;;;;;;;67.93;64.27;;;;;;;;;;5029211;28;20577;-70
2023/09/05 02:43:41;;;;;;;77.57;73.50;;;;;;;;;;5032075;28;20507;-70
2023/09/05 02:46:09;;;;;;;94.20;89.30;;;;;;;;;;5022039;28;20434;-70
2023/09/05 02:48:38;;;;;;;79.57;75.40;;;;;;;;;;5031014;28;20428;-70
2023/09/05 02:51:06;;;;;;;97.03;91.97;;;;;;;;;;5026817;28;20423;-69
2023/09/05 02:53:33;;;;;;;80.65;76.40;;;;;;;;;;5025735;28;20435;-70
2023/09/05 02:56:04;;;;;;;70.47;66.72;;;;;;;;;;5030524;28;20431;-70
2023/09/05 02:58:34;;;;;;;84.25;79.88;;;;;;;;;;5028401;28;20483;-69
2023/09/05 03:01:02;;;;;;;72.50;68.63;;;;;;;;;;5024663;28;20429;-70
2023/09/05 03:03:30;;;;;;;42.97;40.77;;;;;;;;;;5024831;28;20518;-70
2023/09/05 03:05:58;;;;;;;127.03;41.75;;;;;;;;;;5029166;28;20515;-69
2023/09/05 03:08:25;;;;;;;67.68;26.95;;;;;;;;;;5025868;28;20442;-70
2023/09/05 03:10:55;;;;;;;64.93;26.30;;;;;;;;;;5034338;28;20441;-70
2023/09/05 03:13:22;;;;;;;32.53;18.83;;;;;;;;;;5027125;28;21014;-69
2023/09/05 03:15:51;;;;;;;31.20;18.30;;;;;;;;;;5027421;28;20458;-69
2023/09/05 03:18:21;;;;;;;61.65;25.25;;;;;;;;;;5026824;28;20522;-69
2023/09/05 03:20:56;;;;;;;111.25;36.90;;;;;;;;;;5028044;28;20510;-70
2023/09/05 03:23:23;;;;;;;113.05;37.13;;;;;;;;;;5031674;28;20433;-70
2023/09/05 03:25:53;;;;;;;69.13;26.52;;;;;;;;;;5031662;28;22153;-70
2023/09/05 03:28:20;;;;;;;63.25;25.67;;;;;;;;;;5018566;28;20483;-70
2023/09/05 03:30:48;;;;;;;55.40;23.55;;;;;;;;;;5020059;28;20937;-69
2023/09/05 03:33:15;;;;;;;37.90;20.33;;;;;;;;;;5018300;28;20427;-69
2023/09/05 03:35:42;;;;;;;78.30;29.40;;;;;;;;;;5019785;28;20818;-70
2023/09/05 03:38:10;;;;;;;58.63;24.10;;;;;;;;;;5015199;28;20433;-70
2023/09/05 03:40:37;;;;;;;65.93;26.13;;;;;;;;;;5018082;28;20511;-69
2023/09/05 03:43:04;;;;;;;75.18;27.73;;;;;;;;;;5049079;28;20519;-70
2023/09/05 03:45:34;;;;;;;67.20;26.23;;;;;;;;;;5015878;28;20446;-70
2023/09/05 03:48:02;;;;;;;49.85;22.48;;;;;;;;;;5022719;28;20441;-70
2023/09/05 03:50:29;;;;;;;98.45;31.90;;;;;;;;;;5031207;28;20518;-69
2023/09/05 03:52:56;;;;;;;57.80;24.77;;;;;;;;;;5030191;28;20506;-69
2023/09/05 03:55:23;;;;;;;52.45;23.60;;;;;;;;;;5027052;28;20955;-70
2023/09/05 03:57:51;;;;;;;68.93;26.48;;;;;;;;;;5024825;28;20427;-69
2023/09/05 04:00:18;;;;;;;66.63;26.30;;;;;;;;;;5050473;28;20441;-70
2023/09/05 04:02:45;;;;;;;68.18;26.45;;;;;;;;;;5031368;28;21118;-70
2023/09/05 04:05:16;;;;;;;66.25;25.85;;;;;;;;;;5019022;28;20433;-70
2023/09/05 04:07:44;;;;;;;62.80;25.35;;;;;;;;;;5023622;28;20454;-69
2023/09/05 04:10:11;;;;;;;67.97;26.35;;;;;;;;;;5036877;28;20436;-69
2023/09/05 04:12:38;;;;;;;60.10;24.75;;;;;;;;;;5027695;28;20433;-70
2023/09/05 04:15:05;;;;;;;62.42;25.15;;;;;;;;;;5023087;28;20440;-69
2023/09/05 04:17:33;;;;;;;56.45;24.05;;;;;;;;;;5028758;28;20429;-69
2023/09/05 04:20:01;;;;;;;58.95;24.70;;;;;;;;;;5036565;28;20915;-69
2023/09/05 04:22:28;;;;;;;33.20;18.50;;;;;;;;;;5039319;28;20427;-70
2023/09/05 04:24:56;;;;;;;34.73;18.63;;;;;;;;;;5033297;28;20435;-69
2023/09/05 04:27:23;;;;;;;31.45;17.75;;;;;;;;;;5030865;28;20422;-69
2023/09/05 04:29:54;;;;;;;26.63;16.50;;;;;;;;;;5028820;28;20427;-70
2023/09/05 04:32:26;;;;;;;29.63;17.65;;;;;;;;;;5035542;28;20438;-70
2023/09/05 04:34:57;;;;;;;29.08;17.20;;;;;;;;;;5032642;28;20430;-70
2023/09/05 04:37:27;;;;;;;27.85;17.10;;;;;;;;;;5022025;28;20426;-69
2023/09/05 04:39:55;;;;;;;29.80;17.95;;;;;;;;;;5044037;28;20470;-70
2023/09/05 04:42:22;;;;;;;13.20;11.75;;;;;;;;;;5027523;28;20434;-70
2023/09/05 04:44:51;;;;;;;22.27;16.48;;;;;;;;;;5038369;28;20537;-69
2023/09/05 04:47:19;;;;;;;20.48;16.00;;;;;;;;;;5033672;28;20462;-69
2023/09/05 04:49:46;;;;;;;3.92;1.55;;;;;;;;;;5035015;28;20465;-69
2023/09/05 04:52:14;;;;;;;25.43;16.33;;;;;;;;;;5035785;28;20566;-69
2023/09/05 04:54:42;;;;;;;27.02;16.75;;;;;;;;;;5033336;28;20821;-69
2023/09/05 04:57:10;;;;;;;27.02;16.75;;;;;;;;;;5025204;28;20850;-69
2023/09/05 04:59:37;;;;;;;28.00;17.02;;;;;;;;;;5027371;28;20565;-69
2023/09/05 05:02:05;;;;;;;39.08;20.88;;;;;;;;;;5034873;28;20505;-69
2023/09/05 05:04:32;;;;;;;31.13;17.88;;;;;;;;;;5028197;28;20455;-70
2023/09/05 05:06:59;;;;;;;31.15;18.05;;;;;;;;;;5033878;28;20518;-70
2023/09/05 05:09:26;;;;;;;111.10;35.57;;;;;;;;;;5031716;28;20431;-69
2023/09/05 05:11:56;;;;;;;100.57;33.60;;;;;;;;;;5031152;28;21040;-70
2023/09/05 05:14:23;;;;;;;143.10;41.50;;;;;;;;;;5025511;28;20522;-69
2023/09/05 05:16:50;;;;;;;147.93;42.83;;;;;;;;;;5023601;28;20439;-70
2023/09/05 05:19:17;;;;;;;99.88;33.50;;;;;;;;;;5027908;28;20431;-70
2023/09/05 05:21:45;;;;;;;107.43;101.60;;;;;;;;;;5029343;28;20437;-70
2023/09/05 05:24:12;;;;;;;91.95;33.75;;;;;;;;;;5027911;28;20462;-70
2023/09/05 05:26:43;;;;;;;94.57;34.90;;;;;;;;;;5037546;28;20814;-70
2023/09/05 05:29:10;;;;;;;113.97;38.03;;;;;;;;;;5025535;28;20864;-70
2023/09/05 05:31:37;;;;;;;133.80;43.00;;;;;;;;;;5026200;28;20434;-70
2023/09/05 05:34:05;;;;;;;125.32;40.20;;;;;;;;;;5027284;28;20931;-70
2023/09/05 05:36:33;;;;;;;133.97;41.43;;;;;;;;;;5025105;28;20595;-69
2023/09/05 05:39:00;;;;;;;115.90;40.03;;;;;;;;;;5024697;28;20500;-70
2023/09/05 05:41:28;;;;;;;85.00;32.33;;;;;;;;;;5022574;28;20853;-69
2023/09/05 05:43:55;;;;;;;127.57;37.57;;;;;;;;;;5025726;28;20471;-70
2023/09/05 05:46:22;;;;;;;140.80;40.73;;;;;;;;;;5024857;28;20437;-70
2023/09/05 05:48:50;;;;;;;135.75;39.08;;;;;;;;;;5027891;28;20427;-70
2023/09/05 05:51:17;;;;;;;139.85;40.58;;;;;;;;;;5022747;28;20427;-70
2023/09/05 05:53:46;;;;;;;118.72;37.95;;;;;;;;;;5026489;28;20987;-69
2023/09/05 05:56:14;;;;;;;132.52;40.17;;;;;;;;;;5029288;28;20445;-70
2023/09/05 05:58:41;;;;;;;147.87;44.23;;;;;;;;;;5025438;28;20444;-70
2023/09/05 06:01:10;;;;;;;136.73;41.00;;;;;;;;;;5026279;28;20449;-69
2023/09/05 06:03:40;;;;;;;145.95;45.88;;;;;;;;;;5027924;28;20435;-69
2023/09/05 06:06:09;;;;;;;153.95;47.30;;;;;;;;;;5021709;28;20471;-69
2023/09/05 06:08:37;;;;;;;55.42;25.98;;;;;;;;;;5033831;28;20524;-70
2023/09/05 06:11:04;;;;;;;41.90;23.80;;;;;;;;;;5026647;28;20431;-70
2023/09/05 06:13:31;;;;;;;15.20;13.80;;;;;;;;;;5025244;28;20848;-70
2023/09/05 06:15:59;;;;;;;63.33;27.40;;;;;;;;;;5030425;28;20488;-70
2023/09/05 06:18:26;;;;;;;55.78;26.10;;;;;;;;;;5035034;28;20490;-70
2023/09/05 06:20:53;;;;;;;94.07;33.10;;;;;;;;;;5033575;28;20429;-70
2023/09/05 06:23:24;;;;;;;95.05;33.22;;;;;;;;;;5033879;28;20844;-70
2023/09/05 06:25:53;;;;;;;97.07;33.63;;;;;;;;;;5019327;28;20523;-71
2023/09/05 06:28:21;;;;;;;111.22;36.17;;;;;;;;;;5036774;28;20510;-70
2023/09/05 06:30:51;;;;;;;115.55;35.83;;;;;;;;;;5024329;28;20434;-70
2023/09/05 06:33:19;;;;;;;37.05;22.33;;;;;;;;;;5031488;28;20510;-70
2023/09/05 06:35:46;;;;;;;21.55;17.63;;;;;;;;;;5024455;28;20435;-70
2023/09/05 06:38:14;;;;;;;25.40;18.83;;;;;;;;;;5027854;28;20430;-70
2023/09/05 06:40:41;;;;;;;27.02;19.50;;;;;;;;;;5025118;28;20431;-70
2023/09/05 06:43:09;;;;;;;34.40;21.40;;;;;;;;;;5030972;28;20839;-70
2023/09/05 06:45:37;;;;;;;29.17;20.07;;;;;;;;;;5033291;28;20605;-70
2023/09/05 06:48:04;;;;;;;35.67;21.75;;;;;;;;;;5037156;28;20434;-70
2023/09/05 06:50:31;;;;;;;34.10;21.42;;;;;;;;;;5035789;28;20429;-70
2023/09/05 06:52:59;;;;;;;22.15;18.10;;;;;;;;;;5036207;28;20511;-71
2023/09/05 06:55:28;;;;;;;25.00;19.00;;;;;;;;;;5030127;28;20506;-70
2023/09/05 06:57:57;;;;;;;23.02;18.42;;;;;;;;;;5027303;28;20438;-70
2023/09/05 07:00:25;;;;;;;24.05;18.75;;;;;;;;;;5027369;28;20601;-70
2023/09/05 07:02:52;;;;;;;28.00;20.05;;;;;;;;;;5023415;28;21167;-71
2023/09/05 07:05:22;;;;;;;26.02;19.40;;;;;;;;;;5025840;28;20427;-70
2023/09/05 07:07:49;;;;;;;25.80;19.30;;;;;;;;;;5024594;28;21184;-70
2023/09/05 07:10:18;;;;;;;26.73;19.58;;;;;;;;;;5041355;28;20438;-70
2023/09/05 07:12:46;;;;;;;23.23;18.40;;;;;;;;;;5040298;28;20509;-70
2023/09/05 07:15:13;;;;;;;24.25;18.50;;;;;;;;;;5027197;28;20433;-70
2023/09/05 07:17:40;;;;;;;23.80;18.58;;;;;;;;;;5029428;28;20446;-70
2023/09/05 07:20:09;;;;;;;23.15;18.25;;;;;;;;;;5027649;28;20513;-70
2023/09/05 07:22:40;;;;;;;23.48;18.40;;;;;;;;;;5028764;28;20435;-70
2023/09/05 07:25:07;;;;;;;22.10;18.03;;;;;;;;;;5020622;28;20506;-70
2023/09/05 07:27:34;;;;;;;23.95;18.70;;;;;;;;;;5024740;28;20435;-71
2023/09/05 07:30:01;;;;;;;19.98;17.20;;;;;;;;;;5030532;28;20437;-70
2023/09/05 07:32:29;;;;;;;22.48;17.70;;;;;;;;;;5028442;28;20484;-71
2023/09/05 07:34:56;;;;;;;14.88;13.57;;;;;;;;;;5030366;28;20440;-71
2023/09/05 07:37:23;;;;;;;21.00;17.58;;;;;;;;;;5026271;28;20431;-70
2023/09/05 07:39:51;;;;;;;19.58;17.00;;;;;;;;;;5028498;28;20795;-70
2023/09/05 07:42:19;;;;;;;17.27;15.57;;;;;;;;;;5029268;28;20435;-69
2023/09/05 07:44:46;;;;;;;19.23;16.92;;;;;;;;;;5023153;28;20982;-70
2023/09/05 07:47:13;;;;;;;20.50;17.48;;;;;;;;;;5023896;28;20496;-70
2023/09/05 07:49:41;;;;;;;25.05;18.92;;;;;;;;;;5033255;28;20462;-70
2023/09/05 07:52:08;;;;;;;25.08;19.10;;;;;;;;;;5027127;28;20435;-70
2023/09/05 07:54:36;;;;;;;27.35;19.65;;;;;;;;;;5020968;28;20545;-70
2023/09/05 07:57:04;;;;;;;23.90;17.30;;;;;;;;;;5031034;28;20505;-70
2023/09/05 07:59:31;;;;;;;17.05;15.43;;;;;;;;;;5017946;28;20474;-69
2023/09/05 08:02:01;;;;;;;61.97;27.70;;;;;;;;;;5027250;28;20437;-70
2023/09/05 08:04:38;;;;;;;60.40;53.42;;;;;;;;;;5028663;28;20877;-69
2023/09/05 08:07:06;;;;;;;341.13;323.10;;;;;;;;;;5023683;28;20448;-69
2023/09/05 08:09:34;;;;;;;35.75;21.90;;;;;;;;;;5023037;28;20439;-70
2023/09/05 08:12:01;;;;;;;50.70;25.27;;;;;;;;;;5028424;28;20916;-70
2023/09/05 08:14:29;;;;;;;80.95;31.10;;;;;;;;;;5024021;28;20462;-70
2023/09/05 08:16:56;;;;;;;57.33;26.60;;;;;;;;;;5025155;28;20512;-70
2023/09/05 08:19:23;;;;;;;59.08;26.95;;;;;;;;;;5024653;28;20547;-70
2023/09/05 08:21:51;;;;;;;340.08;323.42;;;;;;;;;;5024809;28;20431;-70
2023/09/05 08:24:18;;;;;;;23.55;18.88;;;;;;;;;;5020998;28;20856;-70
2023/09/05 08:26:45;;;;;;;16.30;14.80;;;;;;;;;;5027026;28;20493;-70
2023/09/05 08:29:14;;;;;;;21.55;18.05;;;;;;;;;;5021568;28;20512;-69
2023/09/05 08:31:41;;;;;;;20.88;17.90;;;;;;;;;;5024606;28;21079;-70
2023/09/05 08:34:08;;;;;;;14.70;13.45;;;;;;;;;;5025553;28;20436;-70
2023/09/05 08:36:35;;;;;;;27.83;20.40;;;;;;;;;;5022236;28;20438;-70
2023/09/05 08:39:03;;;;;;;859.33;709.40;;;;;;;;;;5025304;28;20429;-70
2023/09/05 08:41:32;;;;;;;850.45;753.67;;;;;;;;;;5024337;28;20645;-70
2023/09/05 08:44:02;;;;;;;862.97;766.45;;;;;;;;;;5023852;28;20452;-70
2023/09/05 08:46:29;;;;;;;839.28;757.85;;;;;;;;;;5023125;28;20430;-70
2023/09/05 08:48:59;;;;;;;898.70;811.75;;;;;;;;;;5027890;28;20481;-70
2023/09/05 08:51:31;;;;;;;902.07;817.10;;;;;;;;;;5023161;28;20437;-70
2023/09/05 08:54:00;;;;;;;884.72;800.03;;;;;;;;;;5024754;28;20437;-70
2023/09/05 08:56:28;;;;;;;905.72;819.50;;;;;;;;;;5023325;28;20439;-70
2023/09/05 08:58:56;;;;;;;895.60;810.08;;;;;;;;;;5026823;28;20868;-70
2023/09/05 09:01:27;;;;;;;862.42;778.88;;;;;;;;;;5019059;28;20439;-69
2023/09/05 09:04:03;;;;;;;877.00;792.30;;;;;;;;;;5020118;28;20842;-71
2023/09/05 09:06:30;;;;;;;746.53;670.88;;;;;;;;;;5028674;28;20435;-70
2023/09/05 09:08:57;;;;;;;627.63;558.03;;;;;;;;;;5031870;28;20466;-69
2023/09/05 09:11:25;;;;;;;541.05;329.08;;;;;;;;;;5030484;28;20509;-69
2023/09/05 09:14:01;;;;;;;582.13;404.67;;;;;;;;;;5032465;28;21175;-69
2023/09/05 09:16:28;;;;;;;543.65;330.13;;;;;;;;;;5028697;28;20434;-70
2023/09/05 09:19:05;;;;;;;523.95;298.08;;;;;;;;;;5036952;28;20429;-70
2023/09/05 09:21:35;;;;;;;533.80;301.52;;;;;;;;;;5029611;28;20819;-69
2023/09/05 09:24:08;;;;;;;515.10;321.67;;;;;;;;;;5028063;28;20421;-69
2023/09/05 09:26:39;;;;;;;494.77;301.37;;;;;;;;;;5027188;28;20947;-69
2023/09/05 09:29:07;;;;;;;486.85;269.83;;;;;;;;;;5024687;28;20975;-69
2023/09/05 09:31:35;;;;;;;516.92;325.73;;;;;;;;;;5023821;28;20940;-69
2023/09/05 09:34:02;;;;;;;513.95;287.45;;;;;;;;;;5021861;28;20895;-69
2023/09/05 09:36:37;;;;;;;478.13;213.20;;;;;;;;;;5025496;28;20434;-69
2023/09/05 09:39:11;;;;;;;504.05;309.90;;;;;;;;;;5025428;28;21288;-70
2023/09/05 09:41:42;;;;;;;524.83;297.27;;;;;;;;;;5027175;28;20441;-69
2023/09/05 09:44:09;;;;;;;617.53;500.20;;;;;;;;;;5028004;28;20525;-70
2023/09/05 09:46:36;;;;;;;550.38;336.17;;;;;;;;;;5017869;28;20532;-69
2023/09/05 09:49:06;;;;;;;492.70;281.77;;;;;;;;;;5024583;28;20553;-69
2023/09/05 09:51:34;;;;;;;481.25;215.90;;;;;;;;;;5024366;28;20438;-71
2023/09/05 09:54:06;;;;;;;532.55;315.77;;;;;;;;;;5024425;28;20433;-71
2023/09/05 09:56:34;;;;;;;578.13;340.27;;;;;;;;;;5021818;28;20441;-72
2023/09/05 09:59:02;;;;;;;574.03;324.50;;;;;;;;;;5023704;28;20431;-71
2023/09/05 10:01:30;;;;;;;607.67;408.30;;;;;;;;;;5027223;28;20571;-71
2023/09/05 10:03:59;;;;;;;571.60;365.92;;;;;;;;;;5017086;28;20470;-72
2023/09/05 10:06:27;;;;;;;516.67;264.70;;;;;;;;;;5024698;28;20705;-72
2023/09/05 10:08:55;;;;;;;593.78;337.42;;;;;;;;;;5023707;28;20478;-71
2023/09/05 10:11:22;;;;;;;526.70;403.20;;;;;;;;;;5019961;28;20437;-72
2023/09/05 10:13:50;;;;;;;488.10;291.00;;;;;;;;;;5022913;28;20942;-71
2023/09/05 10:16:17;;;;;;;477.27;218.63;;;;;;;;;;5022300;28;20937;-71
2023/09/05 10:18:45;;;;;;;470.77;180.13;;;;;;;;;;5029907;28;20425;-71
2023/09/05 10:21:14;;;;;;;475.38;187.75;;;;;;;;;;5025464;28;20437;-71
2023/09/05 10:23:41;;;;;;;492.40;255.43;;;;;;;;;;5043629;28;20434;-73
2023/09/05 10:26:09;;;;;;;541.85;269.95;;;;;;;;;;5034972;28;20467;-71
2023/09/05 10:28:37;;;;;;;35.60;33.75;;;;;;;;;;5028011;28;20441;-73
2023/09/05 10:31:12;;;;;;;95.77;36.87;;;;;;;;;;5022069;28;20439;-71
2023/09/05 10:33:43;;;;;;;76.28;31.33;;;;;;;;;;5024418;28;20556;-70
2023/09/05 10:36:29;;;;;;;63.30;29.20;;;;;;;;;;5022961;28;20433;-71
2023/09/05 10:38:57;;;;;;;82.82;33.55;;;;;;;;;;5021756;28;20435;-72
2023/09/05 10:41:39;;;;;;;73.45;31.00;;;;;;;;;;5022361;28;20454;-71
2023/09/05 10:44:07;;;;;;;99.27;36.70;;;;;;;;;;5022300;28;20434;-72
2023/09/05 10:46:34;;;;;;;100.28;38.45;;;;;;;;;;5022037;28;20482;-71
2023/09/05 10:49:14;;;;;;;87.13;33.83;;;;;;;;;;5037738;28;20439;-71
2023/09/05 10:52:00;;;;;;;36.55;23.00;;;;;;;;;;5023505;28;20442;-72
2023/09/05 10:54:28;;;;;;;53.30;26.40;;;;;;;;;;5026873;28;20987;-71
2023/09/05 10:56:57;;;;;;;34.13;21.65;;;;;;;;;;5022448;28;20442;-71
2023/09/05 10:59:26;;;;;;;58.33;27.37;;;;;;;;;;5030998;28;21305;-72
2023/09/05 11:02:02;;;;;;;53.25;26.48;;;;;;;;;;5022736;28;20466;-71
2023/09/05 11:04:31;;;;;;;51.90;26.27;;;;;;;;;;5026046;28;20450;-72
2023/09/05 11:07:06;;;;;;;30.83;21.42;;;;;;;;;;5023571;28;20434;-71
2023/09/05 11:09:49;;;;;;;29.95;21.25;;;;;;;;;;5026349;28;20437;-73
2023/09/05 11:12:17;;;;;;;35.08;22.50;;;;;;;;;;5020045;28;20431;-71
2023/09/05 11:14:45;;;;;;;42.38;24.38;;;;;;;;;;5024515;28;20427;-71
2023/09/05 11:17:15;;;;;;;44.38;24.80;;;;;;;;;;5029439;28;21447;-72
2023/09/05 11:19:47;;;;;;;46.63;25.02;;;;;;;;;;5014740;28;20441;-72
2023/09/05 11:22:15;;;;;;;43.72;24.60;;;;;;;;;;5024465;28;20463;-71
2023/09/05 11:24:50;;;;;;;13.70;12.70;;;;;;;;;;5024392;28;20431;-71
2023/09/05 11:27:21;;;;;;;6.20;6.00;;;;;;;;;;5026707;28;20473;-71
2023/09/05 11:29:55;;;;;;;1.80;1.80;;;;;;;;;;5045425;28;20917;-72
2023/09/05 11:32:35;;;;;;;8.07;7.78;;;;;;;;;;5024749;28;20516;-72
2023/09/05 11:35:10;;;;;;;9.00;8.60;;;;;;;;;;5031599;28;20514;-71
2023/09/05 11:37:40;;;;;;;6.90;6.70;;;;;;;;;;5023575;28;20461;-70
2023/09/05 11:40:17;;;;;;;7.90;7.60;;;;;;;;;;5029265;28;20842;-72
2023/09/05 11:42:48;;;;;;;6.90;6.70;;;;;;;;;;5018380;28;20438;-72
2023/09/05 11:45:42;;;;;;;6.20;6.00;;;;;;;;;;5019885;28;20516;-71
2023/09/05 11:48:11;;;;;;;5.20;5.10;;;;;;;;;;5029185;28;20496;-71
2023/09/05 11:50:39;;;;;;;6.28;6.07;;;;;;;;;;5028034;28;20884;-71
2023/09/05 11:53:12;;;;;;;;;;;;;;;;;;5025377;28;20431;-70
2023/09/05 11:55:43;;;;;;;2.80;2.80;;;;;;;;;;5024447;28;20516;-71
2023/09/05 11:58:10;;;;;;;;;;;;;;;;;;5036547;28;20426;-71
2023/09/05 12:00:50;;;;;;;5.63;5.47;;;;;;;;;;5035125;28;21067;-71
2023/09/05 12:03:18;;;;;;;2.83;2.83;;;;;;;;;;5016070;28;20785;-70
2023/09/05 12:05:51;;;;;;;1.95;1.95;;;;;;;;;;5034416;28;20442;-70
2023/09/05 12:08:20;;;;;;;2.90;2.90;;;;;;;;;;5034956;28;21491;-71
2023/09/05 12:11:03;;;;;;;3.20;3.20;;;;;;;;;;5039856;28;20778;-71
2023/09/05 12:13:44;;;;;;;2.55;2.55;;;;;;;;;;5038890;28;20434;-70
2023/09/05 12:16:17;;;;;;;3.90;3.90;;;;;;;;;;5029511;28;20431;-72
2023/09/05 12:18:44;;;;;;;2.28;2.28;;;;;;;;;;5032163;28;20456;-70
2023/09/05 12:21:13;;;;;;;4.70;4.60;;;;;;;;;;5035693;28;20426;-71
2023/09/05 12:23:41;;;;;;;6.05;5.85;;;;;;;;;;5036042;28;20427;-69
2023/09/05 12:26:08;;;;;;;7.43;7.13;;;;;;;;;;5042472;28;20801;-70
2023/09/05 12:28:36;;;;;;;8.93;8.53;;;;;;;;;;5028608;28;20423;-70
2023/09/05 12:31:08;;;;;;;9.57;9.07;;;;;;;;;;5028522;28;20461;-71
2023/09/05 12:33:35;;;;;;;11.55;10.85;;;;;;;;;;5028205;28;20434;-69
2023/09/05 12:36:03;;;;;;;9.93;9.43;;;;;;;;;;5029732;28;62352;-70
2023/09/05 12:38:30;;;;;;;9.13;8.60;;;;;;;;;;5033944;28;20453;-70
2023/09/05 12:40:57;;;;;;;;;;;;;;;;;;5018216;28;161216;-69
2023/09/05 12:43:24;;;;;;;;;;;;;;;;;;5032264;28;20289;-69
2023/09/05 12:45:51;;;;;;;1.73;1.73;;;;;;;;;;5040642;28;20501;-70
2023/09/05 12:48:19;;;;;;;0.50;0.50;;;;;;;;;;5032425;28;20537;-71
2023/09/05 12:50:48;;;;;;;;;;;;;;;;;;5033337;28;25127;-69
2023/09/05 12:53:18;;;;;;;;;;;;;;;;;;5030313;28;20417;-69
2023/09/05 12:55:45;;;;;;;5.80;5.68;;;;;;;;;;5042930;28;20448;-69
2023/09/05 12:58:15;;;;;;;3.28;3.17;;;;;;;;;;5036669;28;20419;-69
2023/09/05 13:00:48;;;;;;;;;;;;;;;;;;5034299;28;21149;-70
2023/09/05 13:03:15;;;;;;;0.50;0.50;;;;;;;;;;5034714;28;20456;-69
2023/09/05 13:05:43;;;;;;;;;;;;;;;;;;5029626;28;19921;-70
2023/09/05 13:08:11;;;;;;;;;;;;;;;;;;5034404;28;19952;-70
2023/09/05 13:10:38;;;;;;;;;;;;;;;;;;5038043;28;25066;-73
2023/09/05 13:13:06;;;;;;;;;;;;;;;;;;5020644;28;35454;-69
2023/09/05 13:15:34;;;;;;;;;;;;;;;;;;5048171;28;25130;-71
2023/09/05 13:18:01;;;;;;;;;;;;;;;;;;5038678;28;19976;-70
2023/09/05 13:20:28;;;;;;;0.60;0.60;;;;;;;;;;5037438;28;20459;-69
2023/09/05 13:22:58;;;;;;;;;;;;;;;;;;5034037;28;20436;-70
2023/09/05 13:25:28;;;;;;;;;;;;;;;;;;5039350;28;19928;-70
2023/09/05 13:27:55;;;;;;;;;;;;;;;;;;5032539;28;19931;-70
2023/09/05 13:30:22;;;;;;;;;;;;;;;;;;5026043;28;25121;-71
2023/09/05 13:32:52;;;;;;;;;;;;;;;;;;5038425;28;20375;-69
2023/09/05 13:35:19;;;;;;;;;;;;;;;;;;5031348;28;19951;-70
2023/09/05 13:37:46;;;;;;;;;;;;;;;;;;5037119;28;19971;-70
2023/09/05 13:40:13;;;;;;;;;;;;;;;;;;5037724;28;19921;-71
2023/09/05 13:42:40;;;;;;;;;;;;;;;;;;5032566;28;19953;-69
2023/09/05 13:45:08;;;;;;;0.10;0.10;;;;;;;;;;5021757;28;20480;-70
2023/09/05 13:47:37;;;;;;;;;;;;;;;;;;5036558;28;20435;-71
2023/09/05 13:50:05;;;;;;;;;;;;;;;;;;5033675;28;19972;-70
2023/09/05 13:52:33;;;;;;;3.17;3.17;;;;;;;;;;5033401;28;20444;-70
2023/09/05 13:55:00;;;;;;;2.67;2.67;;;;;;;;;;5029286;28;20507;-69
2023/09/05 13:57:27;;;;;;;1.60;1.60;;;;;;;;;;5033228;28;20895;-69
2023/09/05 13:59:55;;;;;;;0.85;0.85;;;;;;;;;;5032574;28;20451;-71
2023/09/05 14:02:22;;;;;;;;;;;;;;;;;;5023321;28;20485;-70
2023/09/05 14:04:50;;;;;;;2.05;2.05;;;;;;;;;;5030415;28;20952;-71
2023/09/05 14:07:18;;;;;;;4.93;4.82;;;;;;;;;;5029181;28;20453;-71
2023/09/05 14:09:45;;;;;;;16.77;15.38;;;;;;;;;;5033596;28;20460;-71
2023/09/05 14:12:17;;;;;;;18.00;16.40;;;;;;;;;;5026650;28;20497;-71
2023/09/05 14:14:45;;;;;;;16.20;14.90;;;;;;;;;;5025988;28;20437;-70
2023/09/05 14:17:13;;;;;;;8.45;8.05;;;;;;;;;;5026000;28;21183;-69
2023/09/05 14:19:41;;;;;;;18.15;16.48;;;;;;;;;;5021316;28;20426;-72
2023/09/05 14:22:08;;;;;;;25.77;19.98;;;;;;;;;;5025957;28;20493;-70
2023/09/05 14:24:35;;;;;;;23.27;19.53;;;;;;;;;;5022632;28;20495;-71
2023/09/05 14:27:04;;;;;;;16.33;14.75;;;;;;;;;;5025045;28;20463;-70
2023/09/05 14:29:32;;;;;;;4.47;4.38;;;;;;;;;;5059017;28;20762;-71
2023/09/05 14:32:00;;;;;;;4.00;3.97;;;;;;;;;;5025744;28;20431;-72